Time;durP1;ratioP1;P1;durP2;ratioP2;P2;SDS_P1;SDS_P2;PMS_P1;PMS_P2;Temp;Humidity;BMP_temperature;BMP_pressure;BME280_temperature;BME280_humidity;BME280_pressure;Samples;Min_cycle;Max_cycle;Signal;HPM_P1;HPM_P2
2022/09/14 00:00:51;;;;;;;11.23;2.70;;;;;;;15.31;100.00;100730.94;4994914;28;20505;-90
2022/09/14 00:03:17;;;;;;;9.70;2.60;;;;;;;15.40;100.00;100725.91;4995180;28;20122;-89
2022/09/14 00:05:43;;;;;;;6.37;2.40;;;;;;;15.31;100.00;100720.84;4995824;28;20041;-90
2022/09/14 00:08:10;;;;;;;9.37;2.50;;;;;;;15.30;100.00;100716.47;4995516;28;20529;-90
2022/09/14 00:10:43;;;;;;;12.63;2.97;;;;;;;15.18;99.80;100719.25;4977704;28;20060;-91
2022/09/14 00:13:10;;;;;;;6.88;2.40;;;;;;;15.15;100.00;100708.84;4995167;28;20474;-89
2022/09/14 00:15:40;;;;;;;10.17;2.30;;;;;;;15.10;100.00;100700.56;4977527;28;20124;-89
2022/09/14 00:18:08;;;;;;;10.27;2.60;;;;;;;15.13;100.00;100710.97;4994493;28;20401;-90
2022/09/14 00:20:34;;;;;;;11.43;2.60;;;;;;;15.16;100.00;100704.19;4977746;28;21109;-91
2022/09/14 00:22:59;;;;;;;11.40;2.70;;;;;;;15.13;100.00;100705.50;4996698;28;20080;-88
2022/09/14 00:25:25;;;;;;;10.73;2.70;;;;;;;15.13;100.00;100699.25;4997601;28;20088;-89
2022/09/14 00:27:55;;;;;;;10.90;2.70;;;;;;;15.12;100.00;100705.75;4997418;28;20092;-88
2022/09/14 00:30:22;;;;;;;9.23;2.30;;;;;;;15.11;100.00;100701.38;4998807;28;20037;-87
2022/09/14 00:32:47;;;;;;;8.57;2.60;;;;;;;15.07;100.00;100690.13;4980684;28;20076;-88
2022/09/14 00:35:13;;;;;;;10.60;2.60;;;;;;;15.05;100.00;100691.47;4999068;28;20413;-87
2022/09/14 00:37:38;;;;;;;13.13;2.60;;;;;;;15.03;100.00;100689.78;4998412;28;20468;-87
2022/09/14 00:40:05;;;;;;;8.63;2.60;;;;;;;14.97;100.00;100692.66;4998301;28;20057;-87
2022/09/14 00:42:31;;;;;;;13.33;2.80;;;;;;;14.87;100.00;100690.59;4998080;28;20041;-90
2022/09/14 00:45:00;;;;;;;6.90;2.60;;;;;;;14.90;100.00;100690.09;4997499;28;20498;-88
2022/09/14 00:47:25;;;;;;;9.93;3.00;;;;;;;14.84;100.00;100674.72;4998203;28;20770;-88
2022/09/14 00:49:51;;;;;;;15.33;2.80;;;;;;;14.84;100.00;100674.72;4997676;28;20053;-88
2022/09/14 00:52:21;;;;;;;9.90;2.50;;;;;;;14.82;100.00;100665.94;4998736;28;20490;-88
2022/09/14 00:54:58;;;;;;;7.80;2.33;;;;;;;14.83;100.00;100667.59;4980363;28;20290;-87
2022/09/14 00:57:27;;;;;;;11.00;3.13;;;;;;;14.80;100.00;100657.19;4996807;28;20022;-87
2022/09/14 00:59:54;;;;;;;10.70;2.60;;;;;;;14.72;100.00;100663.03;4997989;28;20445;-88
2022/09/14 01:02:22;;;;;;;6.63;2.30;;;;;;;14.71;100.00;100655.91;4998004;28;20124;-88
2022/09/14 01:04:48;;;;;;;12.07;3.17;;;;;;;14.69;100.00;100650.72;4997865;28;21445;-88
2022/09/14 01:07:38;;;;;;;10.63;2.70;;;;;;;14.64;100.00;100653.34;4980425;28;20077;-88
2022/09/14 01:10:06;;;;;;;8.87;2.40;;;;;;;14.53;100.00;100644.91;4996988;28;20487;-89
2022/09/14 01:12:53;;;;;;;10.20;2.57;;;;;;;14.48;100.00;100646.72;4996318;28;20620;-88
2022/09/14 01:15:34;;;;;;;8.47;2.57;;;;;;;14.40;100.00;100637.06;4998123;28;20050;-88
2022/09/14 01:18:26;;;;;;;8.73;2.47;;;;;;;14.48;100.00;100635.81;4995968;28;20042;-87
2022/09/14 01:21:09;;;;;;;7.60;2.77;;;;;;;14.40;100.00;100634.34;4998188;28;20037;-87
2022/09/14 01:23:36;;;;;;;11.67;2.97;;;;;;;14.37;100.00;100626.63;4997298;28;20056;-88
2022/09/14 01:26:33;;;;;;;9.40;3.00;;;;;;;14.30;100.00;100625.94;4998106;28;20044;-87
2022/09/14 01:29:40;;;;;;;11.67;2.97;;;;;;;14.26;100.00;100625.59;4996892;28;20310;-88
2022/09/14 01:32:15;;;;;;;7.30;3.00;;;;;;;14.27;100.00;100627.25;4962357;28;20049;-87
2022/09/14 01:34:59;;;;;;;10.07;2.60;;;;;;;14.18;100.00;100628.69;4996481;28;20042;-88
2022/09/14 01:37:32;;;;;;;10.47;2.77;;;;;;;14.08;100.00;100618.41;4996326;28;20033;-86
2022/09/14 01:40:04;;;;;;;9.67;2.70;;;;;;;14.15;100.00;100627.28;4997224;28;20128;-87
2022/09/14 01:42:31;;;;;;;12.10;3.10;;;;;;;14.07;100.00;100632.28;4979595;28;20091;-87
2022/09/14 01:45:01;;;;;;;11.57;2.93;;;;;;;14.09;100.00;100632.84;4996712;28;20036;-88
2022/09/14 01:47:33;;;;;;;12.03;2.70;;;;;;;14.06;100.00;100633.34;4974744;28;20470;-87
2022/09/14 01:50:08;;;;;;;9.40;3.03;;;;;;;13.97;100.00;100622.81;4997370;28;20194;-85
2022/09/14 01:52:45;;;;;;;7.30;2.60;;;;;;;14.08;100.00;100637.50;4997195;28;20121;-87
2022/09/14 01:55:26;;;;;;;13.50;3.10;;;;;;;14.01;100.00;100629.44;4996771;28;20111;-87
2022/09/14 01:58:14;;;;;;;11.03;3.43;;;;;;;13.99;100.00;100625.31;4995848;28;20042;-87
2022/09/14 02:00:44;;;;;;;9.20;3.30;;;;;;;14.03;100.00;100621.03;4996681;28;20052;-88
2022/09/14 02:03:21;;;;;;;9.40;3.10;;;;;;;14.07;100.00;100602.31;4996893;28;20033;-87
2022/09/14 02:05:59;;;;;;;6.20;2.73;;;;;;;14.02;100.00;100614.75;4978944;28;20040;-86
2022/09/14 02:08:28;;;;;;;11.47;2.80;;;;;;;14.06;100.00;100608.81;4996378;28;20040;-87
2022/09/14 02:10:54;;;;;;;9.83;2.80;;;;;;;13.91;100.00;100601.16;4996143;28;20037;-86
2022/09/14 02:13:20;;;;;;;9.50;2.90;;;;;;;13.96;100.00;100615.72;4973685;28;20873;-86
2022/09/14 02:15:45;;;;;;;9.87;3.00;;;;;;;13.95;100.00;100619.53;4997488;28;20046;-87
2022/09/14 02:18:11;;;;;;;7.43;2.90;;;;;;;14.01;100.00;100618.56;4995130;28;20546;-88
2022/09/14 02:20:51;;;;;;;8.50;3.00;;;;;;;13.95;100.00;100611.34;4995231;28;20045;-87
2022/09/14 02:23:17;;;;;;;9.53;3.00;;;;;;;13.93;100.00;100613.47;4996537;28;20037;-87
2022/09/14 02:25:44;;;;;;;8.00;3.00;;;;;;;13.89;100.00;100617.75;4996517;28;20486;-88
2022/09/14 02:28:09;;;;;;;11.80;3.10;;;;;;;13.83;100.00;100619.53;4996112;28;20034;-87
2022/09/14 02:30:54;;;;;;;9.33;3.10;;;;;;;13.87;100.00;100621.78;4978644;28;20490;-87
2022/09/14 02:33:28;;;;;;;10.65;3.40;;;;;;;13.93;100.00;100623.56;4996466;28;20037;-87
2022/09/14 02:35:58;;;;;;;10.33;2.77;;;;;;;13.95;100.00;100615.94;4996868;28;20040;-87
2022/09/14 02:38:39;;;;;;;10.17;3.27;;;;;;;13.91;100.00;100618.34;4996421;28;20073;-87
2022/09/14 02:41:23;;;;;;;8.13;2.93;;;;;;;14.01;100.00;100621.28;4996290;28;20513;-87
2022/09/14 02:43:51;;;;;;;11.75;3.20;;;;;;;13.98;100.00;100615.47;4995585;28;20034;-87
2022/09/14 02:46:20;;;;;;;10.33;2.77;;;;;;;13.99;100.00;100614.41;4996075;28;20044;-87
2022/09/14 02:48:56;;;;;;;11.20;3.20;;;;;;;13.94;100.00;100617.00;4978487;28;20041;-87
2022/09/14 02:51:36;;;;;;;10.33;3.13;;;;;;;13.90;100.00;100616.69;4974008;28;20518;-88
2022/09/14 02:54:05;;;;;;;10.77;3.57;;;;;;;13.87;100.00;100619.06;4996650;28;20061;-90
2022/09/14 02:56:32;;;;;;;9.47;3.70;;;;;;;13.77;100.00;100616.94;4996097;28;21445;-89
2022/09/14 02:58:57;;;;;;;14.77;3.63;;;;;;;13.77;100.00;100614.22;4994986;28;20111;-89
2022/09/14 03:01:23;;;;;;;10.13;3.30;;;;;;;13.83;100.00;100603.19;4996624;28;20037;-90
2022/09/14 03:03:49;;;;;;;9.40;3.50;;;;;;;13.91;100.00;100612.06;4996117;28;20389;-92
2022/09/14 03:06:15;;;;;;;8.80;3.30;;;;;;;13.81;100.00;100602.59;4997106;28;20034;-94
2022/09/14 03:08:40;;;;;;;10.03;3.57;;;;;;;13.83;100.00;100613.25;4978726;28;20033;-94
2022/09/14 03:11:06;;;;;;;9.57;3.50;;;;;;;13.76;100.00;100610.69;4997961;28;20502;-92
2022/09/14 03:13:35;;;;;;;9.73;4.20;;;;;;;13.67;100.00;100599.31;4997005;28;20091;-94
2022/09/14 03:16:09;;;;;;;8.60;3.53;;;;;;;13.61;100.00;100581.22;5018084;23;20062;-87
2022/09/14 03:18:35;;;;;;;11.30;3.63;;;;;;;13.62;100.00;100585.56;4988901;28;20041;-87
2022/09/14 03:21:06;;;;;;;9.73;3.83;;;;;;;13.57;100.00;100580.03;4988243;28;20368;-87
2022/09/14 03:23:46;;;;;;;10.30;3.60;;;;;;;13.59;100.00;100572.44;4988132;28;20046;-86
2022/09/14 03:26:15;;;;;;;10.47;3.77;;;;;;;13.50;100.00;100588.34;4988827;28;20084;-86
2022/09/14 03:28:41;;;;;;;10.43;4.17;;;;;;;13.48;100.00;100585.00;4988688;28;20046;-87
2022/09/14 03:31:08;;;;;;;11.07;3.97;;;;;;;13.44;100.00;100588.44;4989011;28;20390;-87
2022/09/14 03:33:34;;;;;;;9.23;4.00;;;;;;;13.43;100.00;100576.72;4988390;28;20084;-87
2022/09/14 03:35:59;;;;;;;9.23;3.60;;;;;;;13.50;100.00;100573.88;4988444;28;20140;-87
2022/09/14 03:38:28;;;;;;;10.97;4.00;;;;;;;13.43;100.00;100584.06;4976113;28;20091;-87
2022/09/14 03:40:56;;;;;;;9.87;3.60;;;;;;;13.39;100.00;100575.53;4988673;28;20046;-87
2022/09/14 03:43:22;;;;;;;13.67;4.20;;;;;;;13.42;100.00;100558.75;4988712;28;20061;-87
2022/09/14 03:45:47;;;;;;;13.70;4.00;;;;;;;13.41;100.00;100561.69;4988572;28;20440;-86
2022/09/14 03:48:14;;;;;;;10.80;3.47;;;;;;;13.39;100.00;100558.38;4988510;28;20164;-85
2022/09/14 03:50:40;;;;;;;10.17;3.43;;;;;;;13.39;100.00;100561.13;4988734;28;20044;-86
2022/09/14 03:53:06;;;;;;;13.23;3.37;;;;;;;13.36;100.00;100564.31;4988674;28;20056;-87
2022/09/14 03:55:31;;;;;;;11.17;3.43;;;;;;;13.38;100.00;100548.56;4977704;28;20033;-88
2022/09/14 03:57:56;;;;;;;10.27;3.17;;;;;;;13.40;100.00;100546.44;4992409;28;20134;-86
2022/09/14 04:00:22;;;;;;;9.53;3.17;;;;;;;13.38;100.00;100537.69;4975632;28;20037;-87
2022/09/14 04:02:48;;;;;;;9.60;3.10;;;;;;;13.30;100.00;100536.09;4991484;28;20037;-87
2022/09/14 04:05:14;;;;;;;11.20;2.77;;;;;;;13.37;100.00;100545.03;4991921;28;20092;-86
2022/09/14 04:07:39;;;;;;;10.27;3.20;;;;;;;13.29;100.00;100551.63;4991692;28;20038;-87
2022/09/14 04:10:06;;;;;;;8.27;2.90;;;;;;;13.40;100.00;100538.28;4963533;28;20042;-86
2022/09/14 04:12:37;;;;;;;11.07;3.13;;;;;;;13.37;100.00;100544.19;4975051;28;20402;-86
2022/09/14 04:15:07;;;;;;;11.17;2.90;;;;;;;13.37;100.00;100541.47;4991884;28;20591;-87
2022/09/14 04:17:33;;;;;;;10.67;3.03;;;;;;;13.26;100.00;100535.78;4991263;28;20050;-87
2022/09/14 04:19:59;;;;;;;9.97;3.63;;;;;;;13.12;100.00;100529.75;4991103;28;20034;-86
2022/09/14 04:22:24;;;;;;;10.57;3.23;;;;;;;13.11;100.00;100543.56;4972780;28;20276;-86
2022/09/14 04:24:49;;;;;;;9.70;3.37;;;;;;;13.15;100.00;100545.59;4991150;28;20042;-85
2022/09/14 04:27:15;;;;;;;9.40;3.30;;;;;;;13.14;100.00;100532.22;4979369;28;20097;-85
2022/09/14 04:29:40;;;;;;;9.40;3.67;;;;;;;13.14;100.00;100537.66;4979026;28;20138;-85
2022/09/14 04:32:06;;;;;;;9.77;3.23;;;;;;;13.14;100.00;100529.50;4991425;28;20070;-85
2022/09/14 04:34:31;;;;;;;7.37;3.03;;;;;;;13.11;100.00;100516.34;4990909;28;20038;-85
2022/09/14 04:36:57;;;;;;;10.53;3.47;;;;;;;13.22;100.00;100518.28;4979704;28;20137;-85
2022/09/14 04:39:22;;;;;;;10.90;3.40;;;;;;;13.27;100.00;100526.56;4973674;28;20076;-84
2022/09/14 04:41:48;;;;;;;9.00;3.30;;;;;;;13.33;100.00;100520.13;4991226;28;20087;-86
2022/09/14 04:44:14;;;;;;;12.67;4.20;;;;;;;13.34;100.00;100529.13;4991549;28;20168;-86
2022/09/14 04:46:41;;;;;;;11.00;3.50;;;;;;;13.29;100.00;100524.41;4991874;28;20042;-85
2022/09/14 04:49:07;;;;;;;8.63;3.60;;;;;;;13.30;100.00;100526.06;4991260;28;20127;-88
2022/09/14 04:51:34;;;;;;;8.90;3.40;;;;;;;13.29;100.00;100524.41;4992022;28;20203;-85
2022/09/14 04:54:00;;;;;;;9.93;3.53;;;;;;;13.32;100.00;100525.81;4991465;28;20138;-89
2022/09/14 04:56:28;;;;;;;8.43;3.67;;;;;;;13.34;100.00;100520.97;4991322;28;20095;-87
2022/09/14 04:58:57;;;;;;;8.43;3.20;;;;;;;13.34;100.00;100508.19;4991229;28;20542;-87
2022/09/14 05:01:25;;;;;;;9.90;3.50;;;;;;;13.43;100.00;100503.25;4991570;28;20446;-86
2022/09/14 05:03:51;;;;;;;6.73;3.40;;;;;;;13.35;100.00;100489.97;4990455;28;20556;-86
2022/09/14 05:06:19;;;;;;;9.23;3.40;;;;;;;13.42;100.00;100506.19;4991768;28;20042;-86
2022/09/14 05:08:46;;;;;;;8.57;3.17;;;;;;;13.42;100.00;100492.59;4990780;28;20030;-87
2022/09/14 05:11:14;;;;;;;11.93;3.53;;;;;;;13.42;100.00;100503.47;4990696;28;20145;-87
2022/09/14 05:13:40;;;;;;;10.17;3.30;;;;;;;13.42;100.00;100498.88;4990931;28;20030;-84
2022/09/14 05:16:08;;;;;;;8.83;3.70;;;;;;;13.35;100.00;100492.69;4990984;28;20549;-84
2022/09/14 05:18:33;;;;;;;10.20;3.57;;;;;;;13.38;100.00;100494.13;4990962;28;20029;-85
2022/09/14 05:21:04;;;;;;;9.57;3.67;;;;;;;13.42;100.00;100500.75;4991201;28;20394;-85
2022/09/14 05:23:30;;;;;;;11.10;3.53;;;;;;;13.38;100.00;100495.00;4990661;28;20061;-86
2022/09/14 05:25:56;;;;;;;9.63;4.00;;;;;;;13.51;100.00;100507.50;4990872;28;20240;-85
2022/09/14 05:28:22;;;;;;;11.00;3.70;;;;;;;13.43;100.00;100513.31;4977701;28;20499;-84
2022/09/14 05:30:47;;;;;;;8.90;3.73;;;;;;;13.39;100.00;100502.06;4990873;28;20057;-87
2022/09/14 05:33:12;;;;;;;7.27;3.87;;;;;;;13.32;100.00;100496.72;4973631;28;20491;-87
2022/09/14 05:35:38;;;;;;;13.77;4.30;;;;;;;13.42;100.00;100512.50;4990901;28;20479;-86
2022/09/14 05:38:03;;;;;;;10.60;4.77;;;;;;;13.43;100.00;100516.03;4971616;28;20062;-86
2022/09/14 05:40:28;;;;;;;11.20;4.50;;;;;;;13.43;100.00;100521.47;4989927;28;20042;-86
2022/09/14 05:42:54;;;;;;;13.07;4.63;;;;;;;13.38;100.00;100516.75;4977997;28;20050;-86
2022/09/14 05:45:19;;;;;;;9.13;4.37;;;;;;;13.39;100.00;100512.94;4990222;28;20037;-86
2022/09/14 05:47:44;;;;;;;12.00;4.80;;;;;;;13.43;100.00;100522.28;4978458;28;20053;-86
2022/09/14 05:50:10;;;;;;;13.43;4.53;;;;;;;13.38;100.00;100526.78;4990606;28;20144;-86
2022/09/14 05:52:35;;;;;;;8.87;4.80;;;;;;;13.39;100.00;100523.00;4990365;28;20041;-87
2022/09/14 05:55:01;;;;;;;13.33;5.53;;;;;;;13.39;100.00;100528.47;4990015;28;20033;-88
2022/09/14 05:57:26;;;;;;;8.50;4.97;;;;;;;13.47;100.00;100525.38;4990107;28;20032;-87
2022/09/14 05:59:51;;;;;;;10.73;4.80;;;;;;;13.36;100.00;100531.66;4990110;28;20034;-87
2022/09/14 06:02:17;;;;;;;10.47;4.93;;;;;;;13.36;100.00;100531.66;4990086;28;20045;-87
2022/09/14 06:04:42;;;;;;;11.47;5.00;;;;;;;13.25;100.00;100512.34;4989960;28;20041;-87
2022/09/14 06:07:07;;;;;;;15.17;5.60;;;;;;;13.36;100.00;100527.03;4989835;28;20045;-86
2022/09/14 06:09:33;;;;;;;10.40;5.30;;;;;;;13.37;100.00;100531.41;4990326;28;20049;-88
2022/09/14 06:11:58;;;;;;;12.07;4.93;;;;;;;13.28;100.00;100528.19;4990234;28;20048;-87
2022/09/14 06:14:24;;;;;;;11.37;5.37;;;;;;;13.39;100.00;100536.63;4989787;28;20034;-87
2022/09/14 06:16:49;;;;;;;12.00;5.50;;;;;;;13.31;100.00;100522.28;4973662;28;20141;-87
2022/09/14 06:19:14;;;;;;;11.23;5.10;;;;;;;13.43;100.00;100524.19;4989627;28;20030;-87
2022/09/14 06:21:41;;;;;;;12.97;5.00;;;;;;;13.40;100.00;100527.41;4989714;28;20112;-87
2022/09/14 06:24:06;;;;;;;11.40;5.40;;;;;;;13.42;100.00;100511.66;4989224;28;20119;-87
2022/09/14 06:26:32;;;;;;;10.63;5.77;;;;;;;13.48;100.00;100527.03;4990308;28;20041;-86
2022/09/14 06:28:57;;;;;;;12.70;5.83;;;;;;;13.52;100.00;100536.38;4989855;28;20040;-86
2022/09/14 06:31:24;;;;;;;10.23;5.83;;;;;;;13.53;100.00;100539.91;4989695;28;20782;-86
2022/09/14 06:33:50;;;;;;;13.47;6.17;;;;;;;13.51;100.00;100532.00;4989541;28;20043;-88
2022/09/14 06:36:19;;;;;;;11.97;6.07;;;;;;;13.51;100.00;100532.00;4989499;28;20052;-88
2022/09/14 06:38:47;;;;;;;13.43;5.90;;;;;;;13.48;100.00;100514.25;4989777;28;20445;-87
2022/09/14 06:41:16;;;;;;;13.07;5.83;;;;;;;13.61;100.00;100521.34;4989453;28;20038;-87
2022/09/14 06:43:42;;;;;;;11.47;5.80;;;;;;;13.65;100.00;100514.34;4989064;28;20041;-86
2022/09/14 06:46:23;;;;;;;12.93;5.57;;;;;;;13.68;100.00;100518.44;4989083;28;20042;-87
2022/09/14 06:49:19;;;;;;;14.07;5.40;;;;;;;13.73;100.00;100528.63;4989678;28;20912;-86
2022/09/14 06:51:46;;;;;;;12.83;5.80;;;;;;;13.68;100.00;100511.13;4978264;28;20041;-87
2022/09/14 06:54:12;;;;;;;10.33;5.60;;;;;;;13.77;100.00;100510.75;4989238;28;20092;-87
2022/09/14 06:56:39;;;;;;;14.63;5.87;;;;;;;13.72;100.00;100506.03;4989364;28;20134;-88
2022/09/14 06:59:06;;;;;;;14.20;5.57;;;;;;;13.71;100.00;100518.00;4999317;28;20552;-86
2022/09/14 07:01:32;;;;;;;12.33;6.07;;;;;;;13.83;100.00;100513.34;5002130;28;20037;-86
2022/09/14 07:03:59;;;;;;;14.33;6.10;;;;;;;13.89;100.00;100518.88;4989539;28;20038;-87
2022/09/14 07:06:28;;;;;;;17.70;6.70;;;;;;;13.88;100.00;100515.31;4991320;28;20117;-87
2022/09/14 07:08:54;;;;;;;14.50;6.13;;;;;;;13.83;100.00;100509.75;4989491;28;20050;-87
2022/09/14 07:11:22;;;;;;;12.10;6.53;;;;;;;13.88;100.00;100517.22;4990552;28;20479;-87
2022/09/14 07:13:48;;;;;;;14.53;6.83;;;;;;;13.94;100.00;100516.25;4989953;28;20481;-87
2022/09/14 07:16:14;;;;;;;15.93;7.17;;;;;;;13.84;100.00;100506.81;4967357;28;20050;-88
2022/09/14 07:18:40;;;;;;;14.40;6.43;;;;;;;13.76;100.00;100503.63;4950762;28;20034;-87
2022/09/14 07:21:09;;;;;;;13.40;7.23;;;;;;;13.82;100.00;100502.69;4950209;28;20061;-87
2022/09/14 07:23:36;;;;;;;14.60;6.73;;;;;;;13.71;100.00;100498.09;4951399;28;20454;-86
2022/09/14 07:26:17;;;;;;;15.33;7.10;;;;;;;13.70;100.00;100496.44;4950473;28;20054;-87
2022/09/14 07:28:45;;;;;;;12.13;6.50;;;;;;;13.62;100.00;100501.19;4951566;28;20039;-86
2022/09/14 07:31:39;;;;;;;12.70;6.60;;;;;;;13.66;100.00;100502.34;4955372;28;20687;-87
2022/09/14 07:34:04;;;;;;;14.00;6.30;;;;;;;13.65;100.00;100508.91;4954801;28;20035;-87
2022/09/14 07:36:32;;;;;;;13.97;6.50;;;;;;;13.58;100.00;100507.38;4955713;28;20089;-87
2022/09/14 07:38:57;;;;;;;15.30;6.50;;;;;;;13.56;100.00;100496.72;4959028;28;20051;-87
2022/09/14 07:41:25;;;;;;;14.33;6.60;;;;;;;13.48;100.00;100497.09;4955235;28;20646;-87
2022/09/14 07:43:53;;;;;;;12.30;6.40;;;;;;;13.55;100.00;100500.50;4967279;28;20058;-87
2022/09/14 07:46:19;;;;;;;12.80;5.80;;;;;;;13.44;100.00;100504.09;4965820;28;20045;-87
2022/09/14 07:48:45;;;;;;;9.67;5.87;;;;;;;13.52;100.00;100484.66;4968038;28;20057;-87
2022/09/14 07:51:11;;;;;;;9.70;6.63;;;;;;;13.48;100.00;100488.94;4976917;28;20047;-87
2022/09/14 07:53:39;;;;;;;11.87;6.00;;;;;;;13.38;100.00;100483.25;4967693;28;20381;-87
2022/09/14 07:56:06;;;;;;;13.77;5.83;;;;;;;13.50;100.00;100500.38;4967904;28;20056;-86
2022/09/14 07:58:32;;;;;;;12.60;6.10;;;;;;;13.49;100.00;100498.72;4974559;28;20441;-87
2022/09/14 08:00:59;;;;;;;13.03;6.10;;;;;;;13.50;100.00;100494.94;4961842;28;20154;-89
2022/09/14 08:03:24;;;;;;;12.47;6.30;;;;;;;13.57;100.00;100484.78;4961669;28;20049;-89
2022/09/14 08:06:00;;;;;;;11.80;6.63;;;;;;;13.62;100.00;100495.75;4959964;28;20464;-89
2022/09/14 08:08:30;;;;;;;14.50;7.20;;;;;;;13.70;100.00;100493.72;4967137;28;20477;-88
2022/09/14 08:11:03;;;;;;;10.70;5.70;;;;;;;13.55;100.00;100495.06;4961034;28;20147;-88
2022/09/14 08:13:28;;;;;;;11.67;5.73;;;;;;;13.49;100.00;100488.69;4971947;28;20058;-84
2022/09/14 08:15:53;;;;;;;10.47;6.30;;;;;;;13.56;100.00;100480.38;4976185;28;23095;-86
2022/09/14 08:18:19;;;;;;;13.43;5.80;;;;;;;13.53;100.00;100490.91;5006614;28;20116;-85
2022/09/14 08:20:45;;;;;;;13.83;5.57;;;;;;;13.49;100.00;100496.00;5007268;28;20046;-85
2022/09/14 08:23:10;;;;;;;15.57;6.37;;;;;;;13.50;100.00;100492.22;5011743;28;20041;-85
2022/09/14 08:25:36;;;;;;;10.40;5.60;;;;;;;13.61;100.00;100488.66;5015194;28;20029;-85
2022/09/14 08:28:01;;;;;;;10.93;5.50;;;;;;;13.51;100.00;100483.00;5013040;28;20037;-84
2022/09/14 08:30:26;;;;;;;13.73;6.13;;;;;;;13.47;100.00;100470.94;5011676;28;20022;-85
2022/09/14 08:32:52;;;;;;;13.20;6.70;;;;;;;13.60;100.00;100483.44;4997248;28;20386;-85
2022/09/14 08:35:17;;;;;;;11.27;6.20;;;;;;;13.71;100.00;100492.63;4999289;28;20034;-85
2022/09/14 08:37:43;;;;;;;11.80;6.60;;;;;;;13.71;100.00;100487.19;5009223;28;20108;-84
2022/09/14 08:40:10;;;;;;;13.10;6.50;;;;;;;13.71;100.00;100487.19;4988793;28;20027;-85
2022/09/14 08:42:37;;;;;;;11.77;6.43;;;;;;;13.74;100.00;100494.91;5004911;28;20144;-86
2022/09/14 08:45:05;;;;;;;11.97;6.03;;;;;;;13.69;100.00;100484.72;5015196;28;20029;-86
2022/09/14 08:47:38;;;;;;;10.53;6.30;;;;;;;13.84;100.00;100497.81;5006179;28;20065;-85
2022/09/14 08:50:11;;;;;;;14.80;7.22;;;;;;;13.84;100.00;100497.81;4992701;28;20038;-85
2022/09/14 08:52:41;;;;;;;11.43;6.37;;;;;;;13.76;100.00;100495.47;5015819;28;20024;-86
2022/09/14 08:55:16;;;;;;;13.07;7.17;;;;;;;13.76;100.00;100495.47;5001403;28;20112;-85
2022/09/14 08:57:47;;;;;;;15.03;7.40;;;;;;;13.79;100.00;100489.53;5015399;28;20034;-85
2022/09/14 09:00:20;;;;;;;17.63;7.20;;;;;;;13.82;100.00;100486.34;5007322;28;20025;-85
2022/09/14 09:03:08;;;;;;;10.98;6.97;;;;;;;13.89;100.00;100500.63;5009568;28;20389;-85
2022/09/14 09:05:50;;;;;;;13.27;6.53;;;;;;;13.89;100.00;100492.47;4994690;28;20033;-85
2022/09/14 09:08:26;;;;;;;13.63;6.83;;;;;;;14.09;100.00;100502.94;5010047;28;20493;-86
2022/09/14 09:10:53;;;;;;;11.77;6.43;;;;;;;14.00;100.00;100497.03;5002342;28;20025;-86
2022/09/14 09:13:25;;;;;;;12.87;6.70;;;;;;;13.90;100.00;100513.19;5004204;28;20113;-85
2022/09/14 09:15:53;;;;;;;12.27;7.00;;;;;;;14.00;100.00;100507.13;5002225;28;20045;-86
2022/09/14 09:18:28;;;;;;;13.70;6.70;;;;;;;13.98;100.00;100501.06;5002519;28;20362;-86
2022/09/14 09:20:59;;;;;;;10.97;6.13;;;;;;;14.00;100.00;100509.84;4998935;28;20044;-86
2022/09/14 09:23:28;;;;;;;13.30;6.57;;;;;;;14.03;100.00;100506.63;5002443;28;20026;-87
2022/09/14 09:26:08;;;;;;;10.17;7.10;;;;;;;14.13;100.00;100504.09;5002721;28;20036;-86
2022/09/14 09:28:44;;;;;;;14.73;6.90;;;;;;;14.06;100.00;100499.88;4999328;28;20038;-87
2022/09/14 09:31:12;;;;;;;14.10;6.47;;;;;;;13.84;100.00;100493.22;4997192;28;20028;-86
2022/09/14 09:33:37;;;;;;;14.80;7.37;;;;;;;13.89;100.00;100497.09;5000514;28;20030;-86
2022/09/14 09:36:06;;;;;;;12.83;6.67;;;;;;;13.84;100.00;100503.25;4999547;28;20038;-86
2022/09/14 09:38:33;;;;;;;14.37;7.37;;;;;;;13.97;100.00;100499.44;4999109;28;20048;-87
2022/09/14 09:41:10;;;;;;;14.37;7.57;;;;;;;13.94;100.00;100503.47;4996959;28;20107;-87
2022/09/14 09:43:55;;;;;;;12.07;6.90;;;;;;;13.95;100.00;100505.13;5003642;28;20489;-86
2022/09/14 09:46:21;;;;;;;13.13;7.20;;;;;;;13.81;100.00;100498.31;4999216;28;20041;-87
2022/09/14 09:48:47;;;;;;;15.03;7.97;;;;;;;13.80;100.00;100497.50;4995884;28;20416;-87
2022/09/14 09:51:25;;;;;;;14.73;7.70;;;;;;;13.79;100.00;100493.09;4990791;28;20034;-87
2022/09/14 09:54:17;;;;;;;14.90;7.90;;;;;;;13.76;100.00;100493.59;4990233;28;20500;-86
2022/09/14 09:56:56;;;;;;;12.13;8.07;;;;;;;13.72;100.00;100488.84;4991324;28;20114;-86
2022/09/14 09:59:27;;;;;;;13.93;8.50;;;;;;;13.70;100.00;100499.19;4993747;28;20038;-87
2022/09/14 10:02:24;;;;;;;12.40;8.03;;;;;;;13.71;100.00;100490.75;5000505;28;20080;-86
2022/09/14 10:05:04;;;;;;;15.63;9.37;;;;;;;13.71;100.00;100492.63;4994374;28;20026;-87
2022/09/14 10:07:32;;;;;;;17.90;9.57;;;;;;;13.82;100.00;100480.91;5009583;28;20061;-85
2022/09/14 10:10:05;;;;;;;19.10;9.10;;;;;;;13.81;100.00;100481.97;4984301;28;20022;-87
2022/09/14 10:12:31;;;;;;;12.40;8.77;;;;;;;13.78;100.00;100482.47;5004038;28;20080;-87
2022/09/14 10:15:06;;;;;;;13.70;8.70;;;;;;;13.78;100.00;100480.53;5111384;27;20404;-86
2022/09/14 10:17:32;;;;;;;14.17;9.00;;;;;;;13.87;100.00;100472.84;5083741;28;20403;-86
2022/09/14 10:19:57;;;;;;;13.30;8.70;;;;;;;13.78;100.00;100460.69;5091161;28;20376;-85
2022/09/14 10:22:26;;;;;;;14.33;8.30;;;;;;;13.98;100.00;100482.84;5091375;28;20028;-86
2022/09/14 10:24:58;;;;;;;13.90;8.13;;;;;;;13.91;100.00;100460.38;5090326;28;20499;-86
2022/09/14 10:27:38;;;;;;;14.60;8.50;;;;;;;13.97;100.00;100458.59;5090193;28;20032;-85
2022/09/14 10:30:06;;;;;;;16.63;9.43;;;;;;;14.06;100.00;100473.47;5081075;28;20016;-86
2022/09/14 10:32:32;;;;;;;14.23;8.90;;;;;;;14.05;100.00;100460.06;5075473;28;20032;-86
2022/09/14 10:34:58;;;;;;;13.83;9.13;;;;;;;14.25;100.00;100487.69;5080856;28;20560;-86
2022/09/14 10:37:28;;;;;;;12.53;7.90;;;;;;;14.17;100.00;100482.63;5068785;28;20024;-86
2022/09/14 10:40:14;;;;;;;15.13;8.77;;;;;;;14.30;100.00;100495.13;5089543;28;20032;-86
2022/09/14 10:42:48;;;;;;;13.97;8.90;;;;;;;14.35;100.00;100487.06;5069415;28;20052;-86
2022/09/14 10:45:26;;;;;;;13.98;9.15;;;;;;;14.44;100.00;100485.59;5071271;28;20017;-85
2022/09/14 10:48:18;;;;;;;13.87;8.63;;;;;;;14.46;100.00;100482.59;5070400;28;20342;-85
2022/09/14 10:50:43;;;;;;;13.70;8.73;;;;;;;14.43;100.00;100480.34;5070722;28;20065;-86
2022/09/14 10:53:30;;;;;;;13.40;8.27;;;;;;;14.53;100.00;100484.06;5069490;28;20107;-85
2022/09/14 10:56:04;;;;;;;12.93;7.50;;;;;;;14.55;100.00;100489.31;5069525;28;20071;-86
2022/09/14 10:58:30;;;;;;;11.70;7.17;;;;;;;14.51;100.00;100485.44;5070290;28;20052;-85
2022/09/14 11:01:07;;;;;;;13.43;8.17;;;;;;;14.55;100.00;100481.13;5070281;28;20412;-86
2022/09/14 11:03:50;;;;;;;12.53;6.93;;;;;;;14.55;100.00;100485.72;5070501;28;20040;-85
2022/09/14 11:06:45;;;;;;;9.97;6.20;;;;;;;14.48;100.00;100480.44;5070352;28;20147;-87
2022/09/14 11:09:20;;;;;;;10.30;6.45;;;;;;;14.52;100.00;100482.44;5076857;28;20043;-87
2022/09/14 11:11:58;;;;;;;10.47;6.50;;;;;;;14.53;100.00;100480.53;5073583;28;20028;-86
2022/09/14 11:15:05;;;;;;;10.87;6.90;;;;;;;14.53;100.00;100477.81;5069586;28;20091;-87
2022/09/14 11:17:49;;;;;;;10.03;6.57;;;;;;;14.51;100.00;100478.06;5068796;28;20036;-86
2022/09/14 11:20:24;;;;;;;10.67;6.73;;;;;;;14.47;100.00;100479.63;5088263;28;20541;-87
2022/09/14 11:23:02;;;;;;;11.47;7.17;;;;;;;14.47;100.00;100479.63;5088455;28;20024;-86
2022/09/14 11:25:51;;;;;;;12.30;7.03;;;;;;;14.56;100.00;100482.75;5080120;28;20031;-86